sensor_id;sensor_type;location;lat;lon;timestamp;P1;durP1;ratioP1;P2;durP2;ratioP2
40867;SDS011;26586;50.708;22.412;2022-08-19T00:01:33;6.53;;;4.88;;
40867;SDS011;26586;50.708;22.412;2022-08-19T00:04:02;8.18;;;5.43;;
40867;SDS011;26586;50.708;22.412;2022-08-19T00:06:30;10.88;;;6.55;;
40867;SDS011;26586;50.708;22.412;2022-08-19T00:08:57;5.47;;;4.80;;
40867;SDS011;26586;50.708;22.412;2022-08-19T00:11:25;7.05;;;4.78;;
40867;SDS011;26586;50.708;22.412;2022-08-19T00:13:53;6.00;;;4.60;;
40867;SDS011;26586;50.708;22.412;2022-08-19T00:16:20;8.65;;;5.00;;
40867;SDS011;26586;50.708;22.412;2022-08-19T00:18:47;7.65;;;5.10;;
40867;SDS011;26586;50.708;22.412;2022-08-19T00:21:14;17.88;;;6.63;;
40867;SDS011;26586;50.708;22.412;2022-08-19T00:23:40;7.43;;;5.43;;
40867;SDS011;26586;50.708;22.412;2022-08-19T00:26:08;11.90;;;6.05;;
40867;SDS011;26586;50.708;22.412;2022-08-19T00:28:36;5.95;;;4.82;;
40867;SDS011;26586;50.708;22.412;2022-08-19T00:31:03;7.30;;;5.15;;
40867;SDS011;26586;50.708;22.412;2022-08-19T00:33:31;5.43;;;4.85;;
40867;SDS011;26586;50.708;22.412;2022-08-19T00:35:58;5.97;;;4.70;;
40867;SDS011;26586;50.708;22.412;2022-08-19T00:38:26;5.97;;;4.80;;
40867;SDS011;26586;50.708;22.412;2022-08-19T00:40:53;6.90;;;5.00;;
40867;SDS011;26586;50.708;22.412;2022-08-19T00:43:21;7.45;;;4.60;;
40867;SDS011;26586;50.708;22.412;2022-08-19T00:45:50;7.35;;;5.10;;
40867;SDS011;26586;50.708;22.412;2022-08-19T00:48:17;6.13;;;5.47;;
40867;SDS011;26586;50.708;22.412;2022-08-19T00:50:44;5.40;;;4.82;;
40867;SDS011;26586;50.708;22.412;2022-08-19T00:53:12;6.88;;;5.05;;
40867;SDS011;26586;50.708;22.412;2022-08-19T00:55:41;5.38;;;4.35;;
40867;SDS011;26586;50.708;22.412;2022-08-19T00:58:12;18.05;;;6.03;;
40867;SDS011;26586;50.708;22.412;2022-08-19T01:00:43;5.63;;;5.00;;
40867;SDS011;26586;50.708;22.412;2022-08-19T01:03:10;4.88;;;4.30;;
40867;SDS011;26586;50.708;22.412;2022-08-19T01:05:37;8.55;;;4.97;;
40867;SDS011;26586;50.708;22.412;2022-08-19T01:08:06;5.72;;;4.75;;
40867;SDS011;26586;50.708;22.412;2022-08-19T01:10:36;6.63;;;4.78;;
40867;SDS011;26586;50.708;22.412;2022-08-19T01:13:06;7.13;;;5.22;;
40867;SDS011;26586;50.708;22.412;2022-08-19T01:15:39;6.47;;;4.68;;
40867;SDS011;26586;50.708;22.412;2022-08-19T01:18:12;9.60;;;6.43;;
40867;SDS011;26586;50.708;22.412;2022-08-19T01:20:41;9.43;;;5.07;;
40867;SDS011;26586;50.708;22.412;2022-08-19T01:23:08;7.10;;;5.30;;
40867;SDS011;26586;50.708;22.412;2022-08-19T01:28:14;6.82;;;5.25;;
40867;SDS011;26586;50.708;22.412;2022-08-19T01:30:43;5.35;;;4.82;;
40867;SDS011;26586;50.708;22.412;2022-08-19T01:33:10;6.93;;;5.82;;
40867;SDS011;26586;50.708;22.412;2022-08-19T01:35:36;6.50;;;4.65;;
40867;SDS011;26586;50.708;22.412;2022-08-19T01:38:03;6.70;;;4.90;;
40867;SDS011;26586;50.708;22.412;2022-08-19T01:40:33;6.38;;;4.88;;
40867;SDS011;26586;50.708;22.412;2022-08-19T01:43:03;6.82;;;5.60;;
40867;SDS011;26586;50.708;22.412;2022-08-19T01:45:31;6.95;;;5.47;;
40867;SDS011;26586;50.708;22.412;2022-08-19T01:48:00;7.82;;;5.22;;
40867;SDS011;26586;50.708;22.412;2022-08-19T01:50:26;9.93;;;5.45;;
40867;SDS011;26586;50.708;22.412;2022-08-19T01:52:53;5.93;;;5.30;;
40867;SDS011;26586;50.708;22.412;2022-08-19T01:55:20;10.80;;;5.70;;
40867;SDS011;26586;50.708;22.412;2022-08-19T01:57:51;6.03;;;4.95;;
40867;SDS011;26586;50.708;22.412;2022-08-19T02:00:22;6.80;;;5.53;;
40867;SDS011;26586;50.708;22.412;2022-08-19T02:02:50;7.05;;;5.60;;
40867;SDS011;26586;50.708;22.412;2022-08-19T02:05:16;6.93;;;5.57;;
40867;SDS011;26586;50.708;22.412;2022-08-19T02:07:44;5.63;;;4.97;;
40867;SDS011;26586;50.708;22.412;2022-08-19T02:10:12;8.43;;;5.75;;
40867;SDS011;26586;50.708;22.412;2022-08-19T02:12:45;6.07;;;4.88;;
40867;SDS011;26586;50.708;22.412;2022-08-19T02:15:11;6.82;;;4.90;;
40867;SDS011;26586;50.708;22.412;2022-08-19T02:17:38;9.80;;;4.90;;
40867;SDS011;26586;50.708;22.412;2022-08-19T02:20:05;6.82;;;4.88;;
40867;SDS011;26586;50.708;22.412;2022-08-19T02:24:58;9.00;;;5.32;;
40867;SDS011;26586;50.708;22.412;2022-08-19T02:27:24;7.97;;;5.45;;
40867;SDS011;26586;50.708;22.412;2022-08-19T02:29:51;10.00;;;5.05;;
40867;SDS011;26586;50.708;22.412;2022-08-19T02:32:18;6.85;;;5.40;;
40867;SDS011;26586;50.708;22.412;2022-08-19T02:34:46;6.47;;;5.15;;
40867;SDS011;26586;50.708;22.412;2022-08-19T02:37:13;7.93;;;5.00;;
40867;SDS011;26586;50.708;22.412;2022-08-19T02:39:58;8.73;;;5.53;;
40867;SDS011;26586;50.708;22.412;2022-08-19T02:42:24;6.47;;;5.47;;
40867;SDS011;26586;50.708;22.412;2022-08-19T02:44:50;7.68;;;5.05;;
40867;SDS011;26586;50.708;22.412;2022-08-19T02:47:20;8.95;;;5.43;;
40867;SDS011;26586;50.708;22.412;2022-08-19T02:49:47;8.43;;;4.93;;
40867;SDS011;26586;50.708;22.412;2022-08-19T02:52:15;9.75;;;5.53;;
40867;SDS011;26586;50.708;22.412;2022-08-19T02:54:42;6.22;;;5.13;;
40867;SDS011;26586;50.708;22.412;2022-08-19T02:59:35;6.72;;;5.70;;
40867;SDS011;26586;50.708;22.412;2022-08-19T03:02:01;7.75;;;5.15;;
40867;SDS011;26586;50.708;22.412;2022-08-19T03:04:27;7.97;;;4.90;;
40867;SDS011;26586;50.708;22.412;2022-08-19T03:06:54;9.18;;;6.30;;
40867;SDS011;26586;50.708;22.412;2022-08-19T03:09:21;11.93;;;5.45;;
40867;SDS011;26586;50.708;22.412;2022-08-19T03:11:47;6.32;;;5.28;;
40867;SDS011;26586;50.708;22.412;2022-08-19T03:14:13;6.85;;;5.35;;
40867;SDS011;26586;50.708;22.412;2022-08-19T03:16:41;15.32;;;5.88;;
40867;SDS011;26586;50.708;22.412;2022-08-19T03:19:09;7.63;;;5.20;;
40867;SDS011;26586;50.708;22.412;2022-08-19T03:21:35;6.80;;;5.47;;
40867;SDS011;26586;50.708;22.412;2022-08-19T03:24:03;9.70;;;6.32;;
40867;SDS011;26586;50.708;22.412;2022-08-19T03:26:31;7.32;;;5.38;;
40867;SDS011;26586;50.708;22.412;2022-08-19T03:29:00;11.85;;;7.93;;
40867;SDS011;26586;50.708;22.412;2022-08-19T03:31:28;9.23;;;6.72;;
40867;SDS011;26586;50.708;22.412;2022-08-19T03:33:55;7.07;;;5.78;;
40867;SDS011;26586;50.708;22.412;2022-08-19T03:36:23;7.18;;;5.55;;
40867;SDS011;26586;50.708;22.412;2022-08-19T03:38:52;6.45;;;5.18;;
40867;SDS011;26586;50.708;22.412;2022-08-19T03:41:22;7.25;;;5.20;;
40867;SDS011;26586;50.708;22.412;2022-08-19T03:43:51;6.75;;;5.97;;
40867;SDS011;26586;50.708;22.412;2022-08-19T03:46:20;9.85;;;6.30;;
40867;SDS011;26586;50.708;22.412;2022-08-19T03:48:52;8.18;;;5.72;;
40867;SDS011;26586;50.708;22.412;2022-08-19T03:51:30;8.00;;;6.43;;
40867;SDS011;26586;50.708;22.412;2022-08-19T03:54:00;8.32;;;5.85;;
40867;SDS011;26586;50.708;22.412;2022-08-19T03:56:28;10.88;;;6.25;;
40867;SDS011;26586;50.708;22.412;2022-08-19T03:58:55;8.07;;;5.80;;
40867;SDS011;26586;50.708;22.412;2022-08-19T04:01:24;7.85;;;6.38;;
40867;SDS011;26586;50.708;22.412;2022-08-19T04:03:52;9.05;;;5.82;;
40867;SDS011;26586;50.708;22.412;2022-08-19T04:06:20;8.70;;;6.03;;
40867;SDS011;26586;50.708;22.412;2022-08-19T04:08:57;7.35;;;5.50;;
40867;SDS011;26586;50.708;22.412;2022-08-19T04:11:26;6.95;;;5.72;;
40867;SDS011;26586;50.708;22.412;2022-08-19T04:13:54;9.25;;;5.40;;
40867;SDS011;26586;50.708;22.412;2022-08-19T04:18:48;6.53;;;5.43;;
40867;SDS011;26586;50.708;22.412;2022-08-19T04:21:19;9.38;;;5.80;;
40867;SDS011;26586;50.708;22.412;2022-08-19T04:23:46;8.90;;;5.70;;
40867;SDS011;26586;50.708;22.412;2022-08-19T04:26:14;8.80;;;6.22;;
40867;SDS011;26586;50.708;22.412;2022-08-19T04:28:42;8.60;;;5.93;;
40867;SDS011;26586;50.708;22.412;2022-08-19T04:31:12;9.45;;;5.93;;
40867;SDS011;26586;50.708;22.412;2022-08-19T04:33:39;10.43;;;6.32;;
40867;SDS011;26586;50.708;22.412;2022-08-19T04:36:06;7.50;;;6.75;;
40867;SDS011;26586;50.708;22.412;2022-08-19T04:40:59;7.57;;;5.90;;
40867;SDS011;26586;50.708;22.412;2022-08-19T04:43:44;17.90;;;16.10;;
40867;SDS011;26586;50.708;22.412;2022-08-19T04:46:14;11.45;;;8.70;;
40867;SDS011;26586;50.708;22.412;2022-08-19T04:48:40;9.43;;;8.52;;
40867;SDS011;26586;50.708;22.412;2022-08-19T04:51:07;7.28;;;6.43;;
40867;SDS011;26586;50.708;22.412;2022-08-19T04:53:36;6.95;;;6.05;;
40867;SDS011;26586;50.708;22.412;2022-08-19T04:56:04;8.80;;;6.20;;
40867;SDS011;26586;50.708;22.412;2022-08-19T04:58:33;9.27;;;5.70;;
40867;SDS011;26586;50.708;22.412;2022-08-19T05:01:00;10.05;;;6.03;;
40867;SDS011;26586;50.708;22.412;2022-08-19T05:03:26;8.43;;;6.20;;
40867;SDS011;26586;50.708;22.412;2022-08-19T05:05:53;11.10;;;6.47;;
40867;SDS011;26586;50.708;22.412;2022-08-19T05:08:20;7.00;;;5.90;;
40867;SDS011;26586;50.708;22.412;2022-08-19T05:10:48;7.35;;;5.70;;
40867;SDS011;26586;50.708;22.412;2022-08-19T05:13:15;10.55;;;6.43;;
40867;SDS011;26586;50.708;22.412;2022-08-19T05:15:43;8.70;;;7.13;;
40867;SDS011;26586;50.708;22.412;2022-08-19T05:18:18;6.90;;;6.13;;
40867;SDS011;26586;50.708;22.412;2022-08-19T05:21:10;7.07;;;6.32;;
40867;SDS011;26586;50.708;22.412;2022-08-19T05:23:56;7.40;;;5.60;;
40867;SDS011;26586;50.708;22.412;2022-08-19T05:26:23;12.05;;;5.70;;
40867;SDS011;26586;50.708;22.412;2022-08-19T05:28:54;9.65;;;5.97;;
40867;SDS011;26586;50.708;22.412;2022-08-19T05:31:20;6.30;;;5.47;;
40867;SDS011;26586;50.708;22.412;2022-08-19T05:33:47;6.55;;;5.32;;
40867;SDS011;26586;50.708;22.412;2022-08-19T05:36:13;7.57;;;5.55;;
40867;SDS011;26586;50.708;22.412;2022-08-19T05:38:40;8.55;;;5.75;;
40867;SDS011;26586;50.708;22.412;2022-08-19T05:41:07;7.03;;;5.53;;
40867;SDS011;26586;50.708;22.412;2022-08-19T05:43:37;6.55;;;5.75;;
40867;SDS011;26586;50.708;22.412;2022-08-19T05:46:04;8.75;;;5.18;;
40867;SDS011;26586;50.708;22.412;2022-08-19T05:48:33;7.25;;;5.13;;
40867;SDS011;26586;50.708;22.412;2022-08-19T05:51:03;9.40;;;5.22;;
40867;SDS011;26586;50.708;22.412;2022-08-19T05:53:34;5.57;;;5.00;;
40867;SDS011;26586;50.708;22.412;2022-08-19T05:56:04;7.00;;;6.25;;
40867;SDS011;26586;50.708;22.412;2022-08-19T05:58:36;7.15;;;5.07;;
40867;SDS011;26586;50.708;22.412;2022-08-19T06:01:03;7.97;;;5.45;;
40867;SDS011;26586;50.708;22.412;2022-08-19T06:03:34;5.50;;;4.45;;
40867;SDS011;26586;50.708;22.412;2022-08-19T06:06:03;6.10;;;4.90;;
40867;SDS011;26586;50.708;22.412;2022-08-19T06:08:30;6.45;;;4.82;;
40867;SDS011;26586;50.708;22.412;2022-08-19T06:10:56;6.82;;;4.78;;
40867;SDS011;26586;50.708;22.412;2022-08-19T06:13:23;5.55;;;5.05;;
40867;SDS011;26586;50.708;22.412;2022-08-19T06:15:51;6.00;;;4.95;;
40867;SDS011;26586;50.708;22.412;2022-08-19T06:18:17;8.63;;;5.03;;
40867;SDS011;26586;50.708;22.412;2022-08-19T06:20:43;6.90;;;5.03;;
40867;SDS011;26586;50.708;22.412;2022-08-19T06:23:09;5.93;;;4.57;;
40867;SDS011;26586;50.708;22.412;2022-08-19T06:25:35;7.85;;;4.78;;
40867;SDS011;26586;50.708;22.412;2022-08-19T06:28:01;8.63;;;5.30;;
40867;SDS011;26586;50.708;22.412;2022-08-19T06:30:28;7.28;;;4.82;;
40867;SDS011;26586;50.708;22.412;2022-08-19T06:32:54;6.47;;;4.95;;
40867;SDS011;26586;50.708;22.412;2022-08-19T06:35:20;6.10;;;5.20;;
40867;SDS011;26586;50.708;22.412;2022-08-19T06:37:46;6.25;;;5.10;;
40867;SDS011;26586;50.708;22.412;2022-08-19T06:40:12;6.55;;;4.38;;
40867;SDS011;26586;50.708;22.412;2022-08-19T06:42:39;6.00;;;5.35;;
40867;SDS011;26586;50.708;22.412;2022-08-19T06:45:05;6.50;;;5.00;;
40867;SDS011;26586;50.708;22.412;2022-08-19T06:47:34;6.32;;;4.90;;
40867;SDS011;26586;50.708;22.412;2022-08-19T06:50:00;6.55;;;4.72;;
40867;SDS011;26586;50.708;22.412;2022-08-19T06:52:28;10.18;;;5.85;;
40867;SDS011;26586;50.708;22.412;2022-08-19T06:54:55;8.98;;;4.90;;
40867;SDS011;26586;50.708;22.412;2022-08-19T06:57:23;8.00;;;4.18;;
40867;SDS011;26586;50.708;22.412;2022-08-19T06:59:50;6.15;;;4.80;;
40867;SDS011;26586;50.708;22.412;2022-08-19T07:02:17;7.07;;;5.03;;
40867;SDS011;26586;50.708;22.412;2022-08-19T07:04:44;6.82;;;4.85;;
40867;SDS011;26586;50.708;22.412;2022-08-19T07:07:11;5.68;;;4.50;;
40867;SDS011;26586;50.708;22.412;2022-08-19T07:09:40;6.63;;;4.60;;
40867;SDS011;26586;50.708;22.412;2022-08-19T07:12:10;5.30;;;4.63;;
40867;SDS011;26586;50.708;22.412;2022-08-19T07:14:39;8.02;;;4.65;;
40867;SDS011;26586;50.708;22.412;2022-08-19T07:17:06;8.68;;;4.72;;
40867;SDS011;26586;50.708;22.412;2022-08-19T07:19:35;6.22;;;4.25;;
40867;SDS011;26586;50.708;22.412;2022-08-19T07:22:03;9.27;;;4.70;;
40867;SDS011;26586;50.708;22.412;2022-08-19T07:24:30;5.80;;;4.78;;
40867;SDS011;26586;50.708;22.412;2022-08-19T07:26:58;8.05;;;6.22;;
40867;SDS011;26586;50.708;22.412;2022-08-19T07:29:28;14.88;;;9.00;;
40867;SDS011;26586;50.708;22.412;2022-08-19T07:31:58;7.70;;;5.93;;
40867;SDS011;26586;50.708;22.412;2022-08-19T07:34:26;9.07;;;6.22;;
40867;SDS011;26586;50.708;22.412;2022-08-19T07:36:54;9.07;;;4.75;;
40867;SDS011;26586;50.708;22.412;2022-08-19T07:39:22;6.55;;;4.40;;
40867;SDS011;26586;50.708;22.412;2022-08-19T07:41:51;7.85;;;5.10;;
40867;SDS011;26586;50.708;22.412;2022-08-19T07:44:19;8.43;;;5.38;;
40867;SDS011;26586;50.708;22.412;2022-08-19T07:46:47;4.93;;;4.05;;
40867;SDS011;26586;50.708;22.412;2022-08-19T07:49:18;10.45;;;4.55;;
40867;SDS011;26586;50.708;22.412;2022-08-19T07:51:49;7.35;;;4.65;;
40867;SDS011;26586;50.708;22.412;2022-08-19T07:54:35;5.35;;;4.32;;
40867;SDS011;26586;50.708;22.412;2022-08-19T07:57:03;5.47;;;3.95;;
40867;SDS011;26586;50.708;22.412;2022-08-19T07:59:30;9.95;;;4.60;;
40867;SDS011;26586;50.708;22.412;2022-08-19T08:04:26;4.72;;;4.05;;
40867;SDS011;26586;50.708;22.412;2022-08-19T08:07:11;4.63;;;4.22;;
40867;SDS011;26586;50.708;22.412;2022-08-19T08:09:56;8.68;;;4.70;;
40867;SDS011;26586;50.708;22.412;2022-08-19T08:12:27;6.10;;;4.28;;
40867;SDS011;26586;50.708;22.412;2022-08-19T08:14:57;7.57;;;4.47;;
40867;SDS011;26586;50.708;22.412;2022-08-19T08:17:30;4.95;;;4.45;;
40867;SDS011;26586;50.708;22.412;2022-08-19T08:19:57;7.53;;;4.38;;
40867;SDS011;26586;50.708;22.412;2022-08-19T08:22:23;5.30;;;4.03;;
40867;SDS011;26586;50.708;22.412;2022-08-19T08:25:10;5.20;;;3.97;;
40867;SDS011;26586;50.708;22.412;2022-08-19T08:27:42;8.43;;;4.10;;
40867;SDS011;26586;50.708;22.412;2022-08-19T08:30:20;7.95;;;4.10;;
40867;SDS011;26586;50.708;22.412;2022-08-19T08:32:48;5.15;;;3.85;;
40867;SDS011;26586;50.708;22.412;2022-08-19T08:35:16;6.65;;;4.05;;
40867;SDS011;26586;50.708;22.412;2022-08-19T08:37:44;5.88;;;4.20;;
40867;SDS011;26586;50.708;22.412;2022-08-19T08:42:58;6.78;;;3.72;;
40867;SDS011;26586;50.708;22.412;2022-08-19T08:45:33;7.70;;;4.40;;
40867;SDS011;26586;50.708;22.412;2022-08-19T08:48:06;9.13;;;4.25;;
40867;SDS011;26586;50.708;22.412;2022-08-19T08:50:43;6.00;;;4.47;;
40867;SDS011;26586;50.708;22.412;2022-08-19T08:53:14;8.35;;;4.03;;
40867;SDS011;26586;50.708;22.412;2022-08-19T08:55:45;8.00;;;3.63;;
40867;SDS011;26586;50.708;22.412;2022-08-19T09:01:11;7.30;;;3.88;;
40867;SDS011;26586;50.708;22.412;2022-08-19T09:03:37;5.15;;;4.05;;
40867;SDS011;26586;50.708;22.412;2022-08-19T09:08:47;5.43;;;3.75;;
40867;SDS011;26586;50.708;22.412;2022-08-19T09:17:07;7.68;;;4.25;;
40867;SDS011;26586;50.708;22.412;2022-08-19T09:19:52;8.13;;;4.05;;
40867;SDS011;26586;50.708;22.412;2022-08-19T09:22:19;6.03;;;4.38;;
40867;SDS011;26586;50.708;22.412;2022-08-19T09:24:49;6.32;;;4.00;;
40867;SDS011;26586;50.708;22.412;2022-08-19T09:27:17;6.28;;;3.65;;
40867;SDS011;26586;50.708;22.412;2022-08-19T09:29:45;5.75;;;3.72;;
40867;SDS011;26586;50.708;22.412;2022-08-19T09:32:14;5.68;;;4.20;;
40867;SDS011;26586;50.708;22.412;2022-08-19T09:34:42;6.03;;;3.75;;
40867;SDS011;26586;50.708;22.412;2022-08-19T09:37:08;6.78;;;3.38;;
40867;SDS011;26586;50.708;22.412;2022-08-19T09:39:35;4.90;;;3.47;;
40867;SDS011;26586;50.708;22.412;2022-08-19T09:42:03;6.15;;;3.88;;
40867;SDS011;26586;50.708;22.412;2022-08-19T09:44:30;7.57;;;3.80;;
40867;SDS011;26586;50.708;22.412;2022-08-19T09:46:56;4.90;;;3.50;;
40867;SDS011;26586;50.708;22.412;2022-08-19T09:49:22;5.80;;;4.03;;
40867;SDS011;26586;50.708;22.412;2022-08-19T09:51:49;5.63;;;3.95;;
40867;SDS011;26586;50.708;22.412;2022-08-19T09:54:17;5.28;;;4.20;;
40867;SDS011;26586;50.708;22.412;2022-08-19T09:59:09;6.47;;;3.65;;
40867;SDS011;26586;50.708;22.412;2022-08-19T10:01:37;5.20;;;3.72;;
40867;SDS011;26586;50.708;22.412;2022-08-19T10:04:04;5.53;;;3.80;;
40867;SDS011;26586;50.708;22.412;2022-08-19T10:06:34;9.00;;;3.55;;
40867;SDS011;26586;50.708;22.412;2022-08-19T10:09:03;6.70;;;3.50;;
40867;SDS011;26586;50.708;22.412;2022-08-19T10:11:35;5.07;;;3.15;;
40867;SDS011;26586;50.708;22.412;2022-08-19T10:14:05;6.15;;;3.80;;
40867;SDS011;26586;50.708;22.412;2022-08-19T10:16:32;6.05;;;3.55;;
40867;SDS011;26586;50.708;22.412;2022-08-19T10:18:58;5.28;;;3.55;;
40867;SDS011;26586;50.708;22.412;2022-08-19T10:21:27;4.32;;;3.10;;
40867;SDS011;26586;50.708;22.412;2022-08-19T10:23:57;5.43;;;3.53;;
40867;SDS011;26586;50.708;22.412;2022-08-19T10:26:28;5.53;;;3.88;;
40867;SDS011;26586;50.708;22.412;2022-08-19T10:28:57;7.35;;;3.08;;
40867;SDS011;26586;50.708;22.412;2022-08-19T10:33:51;4.18;;;3.30;;
40867;SDS011;26586;50.708;22.412;2022-08-19T10:36:23;5.10;;;3.25;;
40867;SDS011;26586;50.708;22.412;2022-08-19T10:38:56;4.05;;;3.60;;
40867;SDS011;26586;50.708;22.412;2022-08-19T10:41:26;5.95;;;3.42;;
40867;SDS011;26586;50.708;22.412;2022-08-19T10:43:58;5.13;;;3.17;;
40867;SDS011;26586;50.708;22.412;2022-08-19T10:46:28;7.07;;;3.25;;
40867;SDS011;26586;50.708;22.412;2022-08-19T10:48:58;5.05;;;3.00;;
40867;SDS011;26586;50.708;22.412;2022-08-19T10:51:26;4.53;;;3.13;;
40867;SDS011;26586;50.708;22.412;2022-08-19T10:54:11;5.00;;;3.22;;
40867;SDS011;26586;50.708;22.412;2022-08-19T10:56:37;6.47;;;3.13;;
40867;SDS011;26586;50.708;22.412;2022-08-19T10:59:20;7.05;;;3.45;;
40867;SDS011;26586;50.708;22.412;2022-08-19T11:01:58;5.87;;;3.30;;
40867;SDS011;26586;50.708;22.412;2022-08-19T11:04:25;4.05;;;3.10;;
40867;SDS011;26586;50.708;22.412;2022-08-19T11:06:51;4.40;;;2.75;;
40867;SDS011;26586;50.708;22.412;2022-08-19T11:09:19;4.03;;;2.75;;
40867;SDS011;26586;50.708;22.412;2022-08-19T11:11:52;4.43;;;3.30;;
40867;SDS011;26586;50.708;22.412;2022-08-19T11:14:19;7.25;;;3.13;;
40867;SDS011;26586;50.708;22.412;2022-08-19T11:16:47;6.68;;;3.38;;
40867;SDS011;26586;50.708;22.412;2022-08-19T11:19:14;5.45;;;3.13;;
40867;SDS011;26586;50.708;22.412;2022-08-19T11:21:45;4.78;;;3.03;;
40867;SDS011;26586;50.708;22.412;2022-08-19T11:24:15;3.33;;;2.95;;
40867;SDS011;26586;50.708;22.412;2022-08-19T11:26:43;4.22;;;3.15;;
40867;SDS011;26586;50.708;22.412;2022-08-19T11:29:10;7.32;;;3.75;;
40867;SDS011;26586;50.708;22.412;2022-08-19T11:31:40;5.35;;;3.50;;
40867;SDS011;26586;50.708;22.412;2022-08-19T11:34:09;3.80;;;2.72;;
40867;SDS011;26586;50.708;22.412;2022-08-19T11:36:38;3.58;;;2.83;;
40867;SDS011;26586;50.708;22.412;2022-08-19T11:39:06;5.05;;;2.70;;
40867;SDS011;26586;50.708;22.412;2022-08-19T11:41:33;6.25;;;3.05;;
40867;SDS011;26586;50.708;22.412;2022-08-19T11:43:59;3.08;;;2.78;;
40867;SDS011;26586;50.708;22.412;2022-08-19T11:46:28;4.88;;;2.45;;
40867;SDS011;26586;50.708;22.412;2022-08-19T11:48:58;4.10;;;2.53;;
40867;SDS011;26586;50.708;22.412;2022-08-19T11:51:26;3.50;;;2.40;;
40867;SDS011;26586;50.708;22.412;2022-08-19T11:53:54;3.53;;;2.30;;
40867;SDS011;26586;50.708;22.412;2022-08-19T11:56:21;6.72;;;2.67;;
40867;SDS011;26586;50.708;22.412;2022-08-19T11:58:49;4.55;;;2.35;;
40867;SDS011;26586;50.708;22.412;2022-08-19T12:01:16;3.90;;;2.45;;
40867;SDS011;26586;50.708;22.412;2022-08-19T12:03:45;4.05;;;2.50;;
40867;SDS011;26586;50.708;22.412;2022-08-19T12:06:14;5.53;;;2.50;;
40867;SDS011;26586;50.708;22.412;2022-08-19T12:08:43;6.88;;;2.38;;
40867;SDS011;26586;50.708;22.412;2022-08-19T12:11:10;3.92;;;2.05;;
40867;SDS011;26586;50.708;22.412;2022-08-19T12:13:39;4.97;;;2.22;;
40867;SDS011;26586;50.708;22.412;2022-08-19T12:16:13;4.00;;;2.00;;
40867;SDS011;26586;50.708;22.412;2022-08-19T12:18:42;5.20;;;2.72;;
40867;SDS011;26586;50.708;22.412;2022-08-19T12:21:15;5.35;;;2.47;;
40867;SDS011;26586;50.708;22.412;2022-08-19T12:23:43;5.00;;;2.35;;
40867;SDS011;26586;50.708;22.412;2022-08-19T12:26:12;4.50;;;2.72;;
40867;SDS011;26586;50.708;22.412;2022-08-19T12:28:39;4.00;;;2.30;;
40867;SDS011;26586;50.708;22.412;2022-08-19T12:31:07;3.90;;;2.40;;
40867;SDS011;26586;50.708;22.412;2022-08-19T12:33:33;6.63;;;2.65;;
40867;SDS011;26586;50.708;22.412;2022-08-19T12:36:02;7.20;;;2.50;;
40867;SDS011;26586;50.708;22.412;2022-08-19T12:38:31;4.32;;;2.22;;
40867;SDS011;26586;50.708;22.412;2022-08-19T12:40:57;5.35;;;3.03;;
40867;SDS011;26586;50.708;22.412;2022-08-19T12:43:24;4.70;;;2.38;;
40867;SDS011;26586;50.708;22.412;2022-08-19T12:48:16;5.55;;;2.40;;
40867;SDS011;26586;50.708;22.412;2022-08-19T12:50:44;4.57;;;1.98;;
40867;SDS011;26586;50.708;22.412;2022-08-19T12:53:13;5.00;;;2.88;;
40867;SDS011;26586;50.708;22.412;2022-08-19T12:55:40;5.78;;;2.47;;
40867;SDS011;26586;50.708;22.412;2022-08-19T12:58:08;4.38;;;2.42;;
40867;SDS011;26586;50.708;22.412;2022-08-19T13:00:35;3.08;;;2.60;;
40867;SDS011;26586;50.708;22.412;2022-08-19T13:03:01;4.63;;;3.38;;
40867;SDS011;26586;50.708;22.412;2022-08-19T13:05:29;3.15;;;2.22;;
40867;SDS011;26586;50.708;22.412;2022-08-19T13:07:57;3.58;;;2.35;;
40867;SDS011;26586;50.708;22.412;2022-08-19T13:10:31;4.53;;;2.67;;
40867;SDS011;26586;50.708;22.412;2022-08-19T13:13:00;3.63;;;2.60;;
40867;SDS011;26586;50.708;22.412;2022-08-19T13:15:32;6.25;;;2.67;;
40867;SDS011;26586;50.708;22.412;2022-08-19T13:18:00;10.25;;;3.10;;
40867;SDS011;26586;50.708;22.412;2022-08-19T13:22:53;5.35;;;2.67;;
40867;SDS011;26586;50.708;22.412;2022-08-19T13:25:20;5.07;;;2.20;;
40867;SDS011;26586;50.708;22.412;2022-08-19T13:27:47;5.35;;;2.78;;
40867;SDS011;26586;50.708;22.412;2022-08-19T13:30:16;4.82;;;2.28;;
40867;SDS011;26586;50.708;22.412;2022-08-19T13:33:07;5.70;;;2.28;;
40867;SDS011;26586;50.708;22.412;2022-08-19T13:35:38;4.28;;;2.60;;
40867;SDS011;26586;50.708;22.412;2022-08-19T13:38:04;5.07;;;2.50;;
40867;SDS011;26586;50.708;22.412;2022-08-19T13:40:32;5.13;;;2.30;;
40867;SDS011;26586;50.708;22.412;2022-08-19T13:42:59;5.30;;;2.50;;
40867;SDS011;26586;50.708;22.412;2022-08-19T13:45:27;3.47;;;2.13;;
40867;SDS011;26586;50.708;22.412;2022-08-19T13:47:56;5.85;;;2.85;;
40867;SDS011;26586;50.708;22.412;2022-08-19T13:50:24;3.53;;;2.10;;
40867;SDS011;26586;50.708;22.412;2022-08-19T13:52:53;4.32;;;2.67;;
40867;SDS011;26586;50.708;22.412;2022-08-19T13:55:20;4.45;;;2.33;;
40867;SDS011;26586;50.708;22.412;2022-08-19T13:57:57;5.88;;;2.70;;
40867;SDS011;26586;50.708;22.412;2022-08-19T14:00:26;4.53;;;2.47;;
40867;SDS011;26586;50.708;22.412;2022-08-19T14:02:55;4.03;;;2.55;;
40867;SDS011;26586;50.708;22.412;2022-08-19T14:05:23;5.60;;;2.60;;
40867;SDS011;26586;50.708;22.412;2022-08-19T14:07:51;6.63;;;2.70;;
40867;SDS011;26586;50.708;22.412;2022-08-19T14:10:18;2.75;;;2.38;;
40867;SDS011;26586;50.708;22.412;2022-08-19T14:12:46;3.33;;;2.33;;
40867;SDS011;26586;50.708;22.412;2022-08-19T14:15:13;6.38;;;2.90;;
40867;SDS011;26586;50.708;22.412;2022-08-19T14:17:42;6.93;;;2.30;;
40867;SDS011;26586;50.708;22.412;2022-08-19T14:20:10;6.10;;;2.55;;
40867;SDS011;26586;50.708;22.412;2022-08-19T14:22:39;4.82;;;2.40;;
40867;SDS011;26586;50.708;22.412;2022-08-19T14:25:07;4.00;;;2.70;;
40867;SDS011;26586;50.708;22.412;2022-08-19T14:27:35;5.15;;;2.63;;
40867;SDS011;26586;50.708;22.412;2022-08-19T14:30:03;3.83;;;2.30;;
40867;SDS011;26586;50.708;22.412;2022-08-19T14:32:30;7.53;;;2.80;;
40867;SDS011;26586;50.708;22.412;2022-08-19T14:34:56;3.55;;;2.60;;
40867;SDS011;26586;50.708;22.412;2022-08-19T14:37:22;5.88;;;2.60;;
40867;SDS011;26586;50.708;22.412;2022-08-19T14:39:49;6.07;;;2.60;;
40867;SDS011;26586;50.708;22.412;2022-08-19T14:42:15;4.60;;;2.85;;
40867;SDS011;26586;50.708;22.412;2022-08-19T14:44:42;4.00;;;2.67;;
40867;SDS011;26586;50.708;22.412;2022-08-19T14:47:09;2.55;;;2.17;;
40867;SDS011;26586;50.708;22.412;2022-08-19T14:49:35;4.20;;;2.45;;
40867;SDS011;26586;50.708;22.412;2022-08-19T14:52:03;5.65;;;2.60;;
40867;SDS011;26586;50.708;22.412;2022-08-19T14:56:55;2.97;;;2.40;;
40867;SDS011;26586;50.708;22.412;2022-08-19T14:59:21;4.18;;;2.30;;
40867;SDS011;26586;50.708;22.412;2022-08-19T15:01:47;2.78;;;2.42;;
40867;SDS011;26586;50.708;22.412;2022-08-19T15:04:13;3.35;;;2.60;;
40867;SDS011;26586;50.708;22.412;2022-08-19T15:06:40;7.93;;;3.20;;
40867;SDS011;26586;50.708;22.412;2022-08-19T15:09:08;3.00;;;2.50;;
40867;SDS011;26586;50.708;22.412;2022-08-19T15:11:35;5.28;;;2.40;;
40867;SDS011;26586;50.708;22.412;2022-08-19T15:14:02;8.73;;;2.90;;
40867;SDS011;26586;50.708;22.412;2022-08-19T15:16:30;3.42;;;2.60;;
40867;SDS011;26586;50.708;22.412;2022-08-19T15:18:58;6.75;;;2.63;;
40867;SDS011;26586;50.708;22.412;2022-08-19T15:21:25;6.78;;;3.88;;
40867;SDS011;26586;50.708;22.412;2022-08-19T15:23:55;4.95;;;2.85;;